createdAt,value
2023-01-11T00:01:27.230Z,50.80
2023-01-11T00:06:23.484Z,52.28
2023-01-11T00:11:19.780Z,51.45
2023-01-11T00:16:16.746Z,55.67
2023-01-11T00:21:13.024Z,51.90
2023-01-11T00:26:11.471Z,53.00
2023-01-11T00:31:08.199Z,52.85
2023-01-11T00:36:04.469Z,54.60
2023-01-11T00:41:20.779Z,53.05
2023-01-11T00:46:35.795Z,53.17
2023-01-11T00:51:32.012Z,53.13
2023-01-11T00:56:28.356Z,51.30
2023-01-11T01:01:24.645Z,51.70
2023-01-11T01:06:21.012Z,48.53
2023-01-11T01:11:17.431Z,52.22
2023-01-11T01:16:13.686Z,52.65
2023-01-11T01:21:10.040Z,50.70
2023-01-11T01:26:06.549Z,50.95
2023-01-11T01:31:02.937Z,50.58
2023-01-11T01:36:01.093Z,48.58
2023-01-11T01:40:57.364Z,51.78
2023-01-11T01:45:55.978Z,49.95
2023-01-11T01:50:55.139Z,48.97
2023-01-11T01:55:53.157Z,50.80
2023-01-11T02:00:49.453Z,51.92
2023-01-11T02:05:45.775Z,52.22
2023-01-11T02:10:42.231Z,50.50
2023-01-11T02:15:38.688Z,49.08
2023-01-11T02:20:42.182Z,48.35
2023-01-11T02:25:53.797Z,48.45
2023-01-11T02:31:01.918Z,48.42
2023-01-11T02:36:16.874Z,50.92
2023-01-11T02:41:28.215Z,49.22
2023-01-11T02:46:33.891Z,47.95
2023-01-11T02:51:41.537Z,51.80
2023-01-11T02:56:42.086Z,50.40
2023-01-11T03:01:47.564Z,51.90
2023-01-11T03:06:44.119Z,50.85
2023-01-11T03:12:11.300Z,53.30
2023-01-11T03:17:18.334Z,51.78
2023-01-11T03:22:14.565Z,51.95
2023-01-11T03:27:10.797Z,51.53
2023-01-11T03:32:14.811Z,48.92
2023-01-11T03:37:25.421Z,50.70
2023-01-11T03:42:23.482Z,50.50
2023-01-11T03:47:21.979Z,50.55
2023-01-11T03:52:20.844Z,48.17
2023-01-11T03:57:21.260Z,49.70
2023-01-11T04:02:18.849Z,47.92
2023-01-11T04:07:15.414Z,49.13
2023-01-11T04:12:11.694Z,46.38
2023-01-11T04:17:07.925Z,46.95
2023-01-11T04:22:04.162Z,47.47
2023-01-11T04:27:00.427Z,46.08
2023-01-11T04:31:56.778Z,46.50
2023-01-11T04:36:53.035Z,48.97
2023-01-11T04:42:07.965Z,48.08
2023-01-11T04:47:04.369Z,47.30
2023-01-11T04:52:00.633Z,47.55
2023-01-11T04:56:57.695Z,46.25
2023-01-11T05:01:54.002Z,46.00
2023-01-11T05:06:50.303Z,48.53
2023-01-11T05:11:46.783Z,48.47
2023-01-11T05:16:43.406Z,45.00
2023-01-11T05:21:40.469Z,46.30
2023-01-11T05:26:37.719Z,43.78
2023-01-11T05:31:34.915Z,45.17
2023-01-11T05:36:32.809Z,44.33
2023-01-11T05:41:29.156Z,46.17
2023-01-11T05:46:26.142Z,47.13
2023-01-11T05:51:22.734Z,45.67
2023-01-11T05:56:19.466Z,45.75
2023-01-11T06:01:16.437Z,46.15
2023-01-11T06:06:14.608Z,45.40
2023-01-11T06:11:10.954Z,44.78
2023-01-11T06:16:09.355Z,45.58
2023-01-11T06:21:06.176Z,45.38
2023-01-11T06:26:06.936Z,48.28
2023-01-11T06:31:03.809Z,45.75
2023-01-11T06:36:03.040Z,46.65
2023-01-11T06:41:00.766Z,44.72
2023-01-11T06:45:57.504Z,46.28
2023-01-11T06:50:54.915Z,47.05
2023-01-11T06:55:52.199Z,45.90
2023-01-11T07:00:48.768Z,46.50
2023-01-11T07:05:45.429Z,46.88
2023-01-11T07:10:42.143Z,47.03
2023-01-11T07:15:38.615Z,45.30
2023-01-11T07:20:35.008Z,46.30
2023-01-11T07:25:31.373Z,46.63
2023-01-11T07:30:28.825Z,47.40
2023-01-11T07:35:27.982Z,45.13
2023-01-11T07:40:24.473Z,44.92
2023-01-11T07:45:20.824Z,43.33
2023-01-11T07:50:17.200Z,44.80
2023-01-11T07:55:13.496Z,46.65
2023-01-11T08:00:10.301Z,46.78
2023-01-11T08:05:06.864Z,44.88
2023-01-11T08:10:03.880Z,42.40
2023-01-11T08:15:00.163Z,43.45
2023-01-11T08:19:56.475Z,44.95
2023-01-11T08:24:53.086Z,44.05
2023-01-11T08:29:49.393Z,43.88
2023-01-11T08:34:45.714Z,46.10
2023-01-11T08:39:43.095Z,47.90
2023-01-11T08:44:39.413Z,45.92
2023-01-11T08:49:35.660Z,49.10
2023-01-11T08:54:31.905Z,47.33
2023-01-11T08:59:28.192Z,48.92
2023-01-11T09:04:25.751Z,49.45
2023-01-11T09:09:22.530Z,51.08
2023-01-11T09:14:18.783Z,51.38
2023-01-11T09:19:15.171Z,53.63
2023-01-11T09:24:11.447Z,54.50
2023-01-11T09:29:08.230Z,57.00
2023-01-11T09:34:06.785Z,54.42
2023-01-11T09:39:07.496Z,55.20
2023-01-11T09:44:16.185Z,59.50
2023-01-11T09:49:20.075Z,58.33
2023-01-11T09:54:19.582Z,60.92
2023-01-11T09:59:22.921Z,58.80
2023-01-11T10:04:37.095Z,58.22
2023-01-11T10:18:26.399Z,59.53
2023-01-11T10:20:27.520Z,62.20
2023-01-11T10:30:32.429Z,66.60
2023-01-11T10:35:35.712Z,69.20
2023-01-11T10:41:03.162Z,67.03
2023-01-11T10:46:01.929Z,66.18
2023-01-11T10:51:05.104Z,65.65
2023-01-11T10:56:05.081Z,66.78
2023-01-11T11:01:12.295Z,70.35
2023-01-11T11:06:15.656Z,66.90
2023-01-11T11:11:26.888Z,68.68
2023-01-11T11:16:23.208Z,68.10
2023-01-11T11:21:28.487Z,68.05
2023-01-11T11:26:27.532Z,60.67
2023-01-11T11:31:23.850Z,61.17
2023-01-11T11:36:20.231Z,55.90
2023-01-11T11:41:17.510Z,54.67
2023-01-11T11:46:18.918Z,55.65
2023-01-11T11:51:19.837Z,49.67
2023-01-11T11:56:17.873Z,46.30
2023-01-11T12:01:31.446Z,47.28
2023-01-11T12:06:28.793Z,46.28
2023-01-11T12:11:34.811Z,45.28
2023-01-11T12:16:33.752Z,43.80
2023-01-11T12:21:30.294Z,41.30
2023-01-11T12:26:34.831Z,46.65
2023-01-11T12:31:40.000Z,43.08
2023-01-11T12:36:55.129Z,42.42
2023-01-11T12:42:00.714Z,44.42
2023-01-11T12:46:59.765Z,43.90
2023-01-11T12:52:02.386Z,46.25
2023-01-11T13:02:07.212Z,46.30
2023-01-11T13:07:06.243Z,45.45
2023-01-11T13:12:21.863Z,49.10
2023-01-11T13:17:18.107Z,48.70
2023-01-11T13:22:17.467Z,46.75
2023-01-11T13:27:24.505Z,45.20
2023-01-11T13:32:26.118Z,43.15
2023-01-11T13:37:41.276Z,40.90
2023-01-11T13:42:40.815Z,37.75
2023-01-11T13:47:39.723Z,32.75
2023-01-11T13:52:38.685Z,27.30
2023-01-11T13:57:49.996Z,22.38
2023-01-11T14:03:06.611Z,25.80
2023-01-11T14:08:22.383Z,27.38
2023-01-11T14:13:41.688Z,28.75
2023-01-11T14:18:49.206Z,25.83
2023-01-11T14:23:52.896Z,28.63
2023-01-11T14:29:04.585Z,25.60
2023-01-11T14:34:22.836Z,24.42
2023-01-11T14:39:38.287Z,12.25
2023-01-11T14:45:54.357Z,10.57
2023-01-11T14:50:56.882Z,11.07
2023-01-11T15:00:49.405Z,12.35
2023-01-11T15:07:37.013Z,20.27
2023-01-11T15:12:35.632Z,12.98
2023-01-11T15:17:51.950Z,14.93
2023-01-11T15:23:03.407Z,9.30
2023-01-11T15:28:04.725Z,16.40
2023-01-11T15:33:19.465Z,15.93
2023-01-11T15:38:21.457Z,18.88
2023-01-11T15:43:44.584Z,16.83
2023-01-11T15:48:51.179Z,19.70
2023-01-11T15:54:05.122Z,13.82
2023-01-11T15:59:36.016Z,19.15
2023-01-11T16:04:46.510Z,15.00
2023-01-11T16:10:14.135Z,15.65
2023-01-11T16:15:31.969Z,11.48
2023-01-11T16:20:28.821Z,19.52
2023-01-11T16:25:29.589Z,16.13
2023-01-11T16:30:27.832Z,14.45
2023-01-11T16:35:25.226Z,16.65
2023-01-11T16:40:36.252Z,20.25
2023-01-11T16:45:43.083Z,18.15
2023-01-11T16:50:43.929Z,17.20
2023-01-11T16:55:44.059Z,18.17
2023-01-11T17:00:40.712Z,18.73
2023-01-11T17:05:37.183Z,16.55
2023-01-11T17:10:33.625Z,16.65
2023-01-11T17:15:43.846Z,9.95
2023-01-11T17:20:40.939Z,14.93
2023-01-11T17:25:44.630Z,17.73
2023-01-11T17:30:45.286Z,16.23
2023-01-11T17:35:42.189Z,14.52
2023-01-11T17:40:40.261Z,19.95
2023-01-11T17:45:38.473Z,17.30
2023-01-11T17:50:46.432Z,20.27
2023-01-11T17:55:52.091Z,14.45
2023-01-11T18:01:20.476Z,12.07
2023-01-11T18:06:22.670Z,20.13
2023-01-11T18:11:31.672Z,17.73
2023-01-11T18:16:28.541Z,15.55
2023-01-11T18:21:26.162Z,19.48
2023-01-11T18:26:27.064Z,14.35
2023-01-11T18:31:23.783Z,21.70
2023-01-11T18:36:22.971Z,14.65
2023-01-11T18:41:38.420Z,23.83
2023-01-11T18:46:34.884Z,13.80
2023-01-11T18:51:34.302Z,18.52
2023-01-11T18:56:30.872Z,18.77
2023-01-11T19:01:27.903Z,16.90
2023-01-11T19:06:25.064Z,23.73
2023-01-11T19:11:24.033Z,22.05
2023-01-11T19:16:20.449Z,15.20
2023-01-11T19:21:16.858Z,17.63
2023-01-11T19:26:14.394Z,19.33
2023-01-11T19:31:14.072Z,17.58
2023-01-11T19:36:10.816Z,16.40
2023-01-11T19:41:09.057Z,16.77
2023-01-11T19:46:05.462Z,15.88
2023-01-11T19:51:10.233Z,18.10
2023-01-11T19:56:08.905Z,21.02
2023-01-11T20:01:10.962Z,16.38
2023-01-11T20:06:08.245Z,21.55
2023-01-11T20:11:09.642Z,12.60
2023-01-11T20:16:08.054Z,17.92
2023-01-11T20:21:04.713Z,29.38
2023-01-11T20:26:07.355Z,23.92
2023-01-11T20:36:10.333Z,17.38
2023-01-11T20:41:33.930Z,18.70
2023-01-11T20:51:26.989Z,19.50
2023-01-11T20:56:23.421Z,14.20
2023-01-11T21:01:26.646Z,18.25
2023-01-11T21:06:23.079Z,17.98
2023-01-11T21:11:19.969Z,17.23
2023-01-11T21:16:16.790Z,21.42
2023-01-11T21:21:15.166Z,20.75
2023-01-11T21:26:16.958Z,23.17
2023-01-11T21:31:13.388Z,13.70
2023-01-11T21:36:14.653Z,17.40
2023-01-11T21:41:17.072Z,19.35
2023-01-11T21:46:13.616Z,17.13
2023-01-11T21:51:10.098Z,16.13
2023-01-11T21:56:07.977Z,15.23
2023-01-11T22:01:11.788Z,19.23
2023-01-11T22:06:08.773Z,15.10
2023-01-11T22:11:06.285Z,19.85
2023-01-11T22:16:06.143Z,17.27
2023-01-11T22:21:06.413Z,18.77
2023-01-11T22:26:08.385Z,22.15
2023-01-11T22:31:05.780Z,20.60
2023-01-11T22:36:04.337Z,16.23
2023-01-11T22:41:00.708Z,16.63
2023-01-11T22:45:58.538Z,18.10
2023-01-11T22:50:55.183Z,13.88
2023-01-11T22:55:51.553Z,17.10
2023-01-11T23:00:47.982Z,31.05
2023-01-11T23:05:48.752Z,19.00
2023-01-11T23:10:45.186Z,23.42
2023-01-11T23:15:41.584Z,15.27
2023-01-11T23:20:38.027Z,16.27
2023-01-11T23:25:34.436Z,14.50
2023-01-11T23:30:30.880Z,19.25
2023-01-11T23:35:27.255Z,9.55
2023-01-11T23:40:23.635Z,15.13
2023-01-11T23:45:20.063Z,14.15
2023-01-11T23:50:16.818Z,14.70
2023-01-11T23:55:13.883Z,10.20
